EGHE/ISC METAR and TAF weather

Enter ICAO airport designator
Station Type Date Time Source
EGHE METAR 2022/01/26 14:50 UTC NOAA

EGHE 261450Z 20012KT 9999 FEW015 BKN030 10/07 Q1033


Station Type Date Time Source
EGHE Decoded METAR 2022/01/26 14:50 UTC NOAA

Scilly, Saint Mary'S, United Kingdom (EGHE) 49-55N 006-18W 0M
Jan 26, 2022 - 09:50 AM EST / 2022.01.26 1450 UTC
Wind: from the SSW (200 degrees) at 14 MPH (12 KT):0
Visibility: greater than 7 mile(s):0
Sky conditions: mostly cloudy
Temperature: 50 F (10 C)
Dew Point: 44 F (7 C)
Relative Humidity: 81%
Pressure (altimeter): 30.50 in. Hg (1033 hPa)
ob: EGHE 261450Z 20012KT 9999 FEW015 BKN030 10/07 Q1033
cycle: 15

Station Type Date Time Source
EGHE TAF UTC NOAA

Error!

Example: see airport list